createdAt,value
2018-12-25T00:00:37.503Z,7.89
2018-12-25T00:01:38.206Z,7.90
2018-12-25T00:02:38.851Z,7.84
2018-12-25T00:03:39.549Z,7.97
2018-12-25T00:04:40.208Z,7.96
2018-12-25T00:05:40.887Z,7.82
2018-12-25T00:06:41.538Z,7.82
2018-12-25T00:07:42.243Z,7.92
2018-12-25T00:08:42.890Z,7.87
2018-12-25T00:09:43.587Z,7.81
2018-12-25T00:10:44.228Z,7.79
2018-12-25T00:11:44.924Z,7.81
2018-12-25T00:12:45.577Z,7.78
2018-12-25T00:13:46.266Z,7.79
2018-12-25T00:14:46.919Z,7.85
2018-12-25T00:15:47.629Z,7.82
2018-12-25T00:16:48.270Z,7.92
2018-12-25T00:17:48.965Z,7.77
2018-12-25T00:18:49.639Z,7.79
2018-12-25T00:19:50.309Z,7.77
2018-12-25T00:20:50.999Z,7.74
2018-12-25T00:21:51.757Z,7.78
2018-12-25T00:22:52.399Z,7.84
2018-12-25T00:23:53.098Z,7.82
2018-12-25T00:24:53.752Z,7.90
2018-12-25T00:25:54.437Z,7.82
2018-12-25T00:26:55.094Z,7.77
2018-12-25T00:27:55.796Z,7.84
2018-12-25T00:28:56.445Z,7.82
2018-12-25T00:29:57.249Z,7.89
2018-12-25T00:30:57.904Z,7.82
2018-12-25T00:31:58.581Z,7.85
2018-12-25T00:32:59.233Z,7.90
2018-12-25T00:33:59.932Z,7.89
2018-12-25T00:35:00.575Z,7.89
2018-12-25T00:36:01.275Z,7.81
2018-12-25T00:37:01.930Z,7.84
2018-12-25T00:38:02.620Z,7.81
2018-12-25T00:39:03.260Z,7.87
2018-12-25T00:40:03.961Z,7.87
2018-12-25T00:41:04.641Z,7.81
2018-12-25T00:42:05.413Z,7.87
2018-12-25T00:43:06.061Z,7.84
2018-12-25T00:44:06.755Z,7.87
2018-12-25T00:45:07.498Z,7.82
2018-12-25T00:46:08.099Z,7.90
2018-12-25T00:47:08.762Z,7.87
2018-12-25T00:48:09.829Z,7.94
2018-12-25T00:49:14.778Z,7.87
2018-12-25T00:50:12.120Z,7.81
2018-12-25T00:51:12.769Z,7.89
2018-12-25T00:52:13.470Z,7.87
2018-12-25T00:53:14.135Z,7.94
2018-12-25T00:54:14.806Z,7.87
2018-12-25T00:55:15.459Z,7.85
2018-12-25T00:56:16.156Z,7.82
2018-12-25T00:57:16.805Z,7.78
2018-12-25T00:58:17.501Z,7.77
2018-12-25T00:59:18.151Z,7.92
2018-12-25T01:00:18.850Z,7.77
2018-12-25T01:01:19.495Z,7.82
2018-12-25T01:02:20.187Z,7.79
2018-12-25T01:03:20.839Z,7.92
2018-12-25T01:04:21.616Z,7.82
2018-12-25T01:05:22.185Z,7.82
2018-12-25T01:06:22.883Z,7.84
2018-12-25T01:07:23.529Z,7.78
2018-12-25T01:08:24.229Z,7.75
2018-12-25T01:09:24.873Z,7.75
2018-12-25T01:10:25.564Z,7.77
2018-12-25T01:11:26.218Z,7.75
2018-12-25T01:12:26.920Z,7.77
2018-12-25T01:13:27.562Z,7.77
2018-12-25T01:14:28.285Z,7.85
2018-12-25T01:15:28.908Z,7.81
2018-12-25T01:16:29.607Z,7.75
2018-12-25T01:17:30.311Z,7.79
2018-12-25T01:18:31.359Z,7.78
2018-12-25T01:19:32.024Z,7.78
2018-12-25T01:20:32.702Z,7.85
2018-12-25T01:21:33.363Z,7.85
2018-12-25T01:22:34.158Z,7.81
2018-12-25T01:23:34.800Z,7.79
2018-12-25T01:24:35.470Z,7.78
2018-12-25T01:25:36.126Z,7.78
2018-12-25T01:26:36.822Z,7.85
2018-12-25T01:27:37.471Z,7.85
2018-12-25T01:28:38.162Z,7.85
2018-12-25T01:29:38.803Z,7.84
2018-12-25T01:30:39.509Z,7.78
2018-12-25T01:31:40.569Z,7.82
2018-12-25T01:32:41.261Z,7.77
2018-12-25T01:33:41.910Z,7.75
2018-12-25T01:34:42.606Z,7.87
2018-12-25T01:35:43.259Z,7.75
2018-12-25T01:36:43.946Z,7.78
2018-12-25T01:37:44.605Z,7.82
2018-12-25T01:38:45.379Z,7.72
2018-12-25T01:39:45.948Z,7.77
2018-12-25T01:40:46.636Z,7.77
2018-12-25T01:41:47.280Z,7.75
2018-12-25T01:42:47.978Z,7.72
2018-12-25T01:43:48.626Z,7.84
2018-12-25T01:44:49.348Z,7.71
2018-12-25T01:45:49.967Z,7.66
2018-12-25T01:46:50.670Z,7.79
2018-12-25T01:47:51.326Z,7.84
2018-12-25T01:48:52.016Z,7.74
2018-12-25T01:49:52.669Z,7.77
2018-12-25T01:50:53.358Z,7.84
2018-12-25T01:51:54.013Z,7.77
2018-12-25T01:52:54.780Z,7.78
2018-12-25T01:53:55.431Z,7.79
2018-12-25T01:55:04.830Z,7.82
2018-12-25T01:56:05.473Z,7.78
2018-12-25T01:57:14.772Z,7.81
2018-12-25T01:58:15.420Z,7.81
2018-12-25T01:59:16.119Z,7.84
2018-12-25T02:00:16.773Z,7.78
2018-12-25T02:01:19.511Z,7.84
2018-12-25T02:02:20.000Z,7.79
2018-12-25T02:03:22.747Z,7.90
2018-12-25T02:04:23.412Z,7.81
2018-12-25T02:05:26.091Z,7.94
2018-12-25T02:06:26.737Z,7.79
2018-12-25T02:07:27.533Z,7.85
2018-12-25T02:08:28.111Z,7.90
2018-12-25T02:09:30.828Z,7.85
2018-12-25T02:10:31.477Z,7.93
2018-12-25T02:11:32.211Z,7.87
2018-12-25T02:12:32.865Z,7.93
2018-12-25T02:13:33.547Z,7.87
2018-12-25T02:14:34.213Z,7.90
2018-12-25T02:15:35.062Z,7.89
2018-12-25T02:16:35.707Z,7.90
2018-12-25T02:17:37.430Z,7.84
2018-12-25T02:18:38.076Z,7.90
2018-12-25T02:19:40.323Z,7.85
2018-12-25T02:20:39.420Z,7.87
2018-12-25T02:21:40.121Z,7.82
2018-12-25T02:22:40.765Z,7.81
2018-12-25T02:23:41.472Z,7.90
2018-12-25T02:24:42.121Z,7.89
2018-12-25T02:26:54.397Z,7.87
2018-12-25T02:27:55.110Z,7.81
2018-12-25T02:28:55.756Z,7.87
2018-12-25T02:29:56.479Z,7.87
2018-12-25T02:30:57.134Z,7.87
2018-12-25T02:31:57.800Z,7.90
2018-12-25T02:32:58.449Z,7.84
2018-12-25T02:33:59.146Z,7.84
2018-12-25T02:34:59.788Z,7.79
2018-12-25T02:36:07.252Z,7.82
2018-12-25T02:37:07.907Z,7.72
2018-12-25T02:38:09.620Z,7.82
2018-12-25T02:39:10.263Z,7.71
2018-12-25T02:40:10.958Z,7.75
2018-12-25T02:41:11.625Z,7.75
2018-12-25T02:42:12.301Z,7.69
2018-12-25T02:43:12.952Z,7.69
2018-12-25T02:44:13.651Z,7.74
2018-12-25T02:45:14.294Z,7.72
2018-12-25T02:46:14.992Z,7.74
2018-12-25T02:47:15.644Z,7.69
2018-12-25T02:48:16.335Z,7.77
2018-12-25T02:49:18.369Z,7.77
2018-12-25T02:50:17.678Z,7.72
2018-12-25T02:51:18.326Z,7.72
2018-12-25T02:52:19.024Z,7.81
2018-12-25T02:53:19.677Z,7.75
2018-12-25T02:54:20.374Z,7.66
2018-12-25T02:55:21.017Z,7.59
2018-12-25T02:56:21.714Z,7.69
2018-12-25T02:57:22.361Z,7.71
2018-12-25T02:58:23.061Z,7.63
2018-12-25T02:59:23.710Z,7.71
2018-12-25T03:00:24.408Z,7.60
2018-12-25T03:01:25.048Z,7.60
2018-12-25T03:02:25.746Z,7.58
2018-12-25T03:03:26.398Z,7.63
2018-12-25T03:04:27.094Z,7.60
2018-12-25T03:05:27.739Z,7.72
2018-12-25T03:06:28.436Z,7.56
2018-12-25T03:07:29.084Z,7.72
2018-12-25T03:08:29.788Z,7.72
2018-12-25T03:09:30.439Z,7.72
2018-12-25T03:10:31.130Z,7.59
2018-12-25T03:11:32.091Z,7.72
2018-12-25T03:12:32.788Z,7.67
2018-12-25T03:13:33.430Z,7.63
2018-12-25T03:14:34.126Z,7.66
2018-12-25T03:15:34.776Z,7.58
2018-12-25T03:16:35.476Z,7.69
2018-12-25T03:17:36.123Z,7.63
2018-12-25T03:18:36.814Z,7.77
2018-12-25T03:19:38.006Z,7.67
2018-12-25T03:20:38.577Z,7.60
2018-12-25T03:21:39.222Z,7.66
2018-12-25T03:22:39.919Z,7.63
2018-12-25T03:23:40.565Z,7.60
2018-12-25T03:24:41.262Z,7.55
2018-12-25T03:25:41.906Z,7.53
2018-12-25T03:26:42.621Z,7.53
2018-12-25T03:27:43.265Z,7.53
2018-12-25T03:28:43.954Z,7.53
2018-12-25T03:29:44.597Z,7.60
2018-12-25T03:30:45.300Z,7.58
2018-12-25T03:31:45.948Z,7.58
2018-12-25T03:32:46.653Z,7.62
2018-12-25T03:33:47.300Z,7.50
2018-12-25T03:34:47.985Z,7.47
2018-12-25T03:35:48.657Z,7.59
2018-12-25T03:36:49.344Z,7.56
2018-12-25T03:37:49.972Z,7.55
2018-12-25T03:38:50.677Z,7.56
2018-12-25T03:39:51.425Z,7.44
2018-12-25T03:40:52.020Z,7.55
2018-12-25T03:41:52.668Z,7.58
2018-12-25T03:42:53.372Z,7.53
2018-12-25T03:43:54.014Z,7.56
2018-12-25T03:44:54.717Z,7.50
2018-12-25T03:45:55.356Z,7.53
2018-12-25T03:47:03.790Z,7.50
2018-12-25T03:48:04.441Z,7.56
2018-12-25T03:49:05.143Z,7.56
2018-12-25T03:50:10.802Z,7.49
2018-12-25T03:51:13.240Z,7.62
2018-12-25T03:52:13.884Z,7.56
2018-12-25T03:53:14.583Z,7.56
2018-12-25T03:54:15.228Z,7.59
2018-12-25T03:55:15.929Z,7.53
2018-12-25T03:56:16.570Z,7.52
2018-12-25T03:57:17.276Z,7.56
2018-12-25T03:58:17.924Z,7.55
2018-12-25T03:59:18.615Z,7.56
2018-12-25T04:00:19.261Z,7.60
2018-12-25T04:01:19.861Z,7.55
2018-12-25T04:02:20.502Z,7.53
2018-12-25T04:03:21.203Z,7.49
2018-12-25T04:04:21.852Z,7.50
2018-12-25T04:05:22.552Z,7.50
2018-12-25T04:06:23.195Z,7.60
2018-12-25T04:07:23.904Z,7.55
2018-12-25T04:08:24.550Z,7.52
2018-12-25T04:09:27.288Z,7.58
2018-12-25T04:10:27.938Z,7.58
2018-12-25T04:11:28.639Z,7.52
2018-12-25T04:12:29.286Z,7.50
2018-12-25T04:13:30.065Z,7.50
2018-12-25T04:14:30.626Z,7.53
2018-12-25T04:15:31.323Z,7.55
2018-12-25T04:16:31.971Z,7.44
2018-12-25T04:17:32.667Z,7.42
2018-12-25T04:18:33.315Z,7.35
2018-12-25T04:19:34.011Z,7.37
2018-12-25T04:20:34.662Z,7.31
2018-12-25T04:21:35.354Z,7.49
2018-12-25T04:22:36.075Z,7.40
2018-12-25T04:23:36.700Z,7.45
2018-12-25T04:24:37.349Z,7.42
2018-12-25T04:25:38.250Z,7.55
2018-12-25T04:26:38.878Z,7.50
2018-12-25T04:27:39.519Z,7.45
2018-12-25T04:28:40.168Z,7.47
2018-12-25T04:29:40.830Z,7.45
2018-12-25T04:30:41.555Z,7.45
2018-12-25T04:31:42.130Z,7.55
2018-12-25T04:32:42.771Z,7.40
2018-12-25T04:33:43.504Z,7.58
2018-12-25T04:34:44.162Z,7.50
2018-12-25T04:35:44.848Z,7.50
2018-12-25T04:36:45.500Z,7.52
2018-12-25T04:37:53.769Z,7.52
2018-12-25T04:38:54.426Z,7.50
2018-12-25T04:40:01.775Z,7.55
2018-12-25T04:41:02.429Z,7.58
2018-12-25T04:42:05.256Z,7.55
2018-12-25T04:43:06.169Z,7.42
2018-12-25T04:44:14.814Z,7.60
2018-12-25T04:45:15.469Z,7.53
2018-12-25T04:46:23.825Z,7.50
2018-12-25T04:47:24.482Z,7.52
2018-12-25T04:48:25.165Z,7.50
2018-12-25T04:49:25.908Z,7.45
2018-12-25T04:50:29.355Z,7.53
2018-12-25T04:51:27.158Z,7.55
2018-12-25T04:52:28.881Z,7.50
2018-12-25T04:53:29.541Z,7.50
2018-12-25T04:54:31.257Z,7.55
2018-12-25T04:55:31.908Z,7.59
2018-12-25T04:56:32.594Z,7.56
2018-12-25T04:57:33.247Z,7.56
2018-12-25T04:58:33.940Z,7.66
2018-12-25T04:59:34.591Z,7.60
2018-12-25T05:00:35.285Z,7.53
2018-12-25T05:01:35.935Z,7.49
2018-12-25T05:02:37.654Z,7.55
2018-12-25T05:03:38.305Z,7.58
2018-12-25T05:04:41.049Z,7.50
2018-12-25T05:05:41.763Z,7.53
2018-12-25T05:06:43.414Z,7.52
2018-12-25T05:07:44.066Z,7.56
2018-12-25T05:08:52.341Z,7.52
2018-12-25T05:09:53.169Z,7.53
2018-12-25T05:11:02.797Z,7.58
2018-12-25T05:12:03.454Z,7.55
2018-12-25T05:13:20.836Z,7.53
2018-12-25T05:14:21.481Z,7.56
2018-12-25T05:15:22.177Z,7.60
2018-12-25T05:16:22.824Z,7.62
2018-12-25T05:17:32.328Z,7.59
2018-12-25T05:18:32.984Z,7.66
2018-12-25T05:19:33.680Z,7.59
2018-12-25T05:20:38.025Z,7.56
2018-12-25T05:21:35.025Z,7.62
2018-12-25T05:22:35.682Z,7.69
2018-12-25T05:23:36.371Z,7.59
2018-12-25T05:24:37.025Z,7.69
2018-12-25T05:25:37.718Z,7.55
2018-12-25T05:26:38.362Z,7.59
2018-12-25T05:27:39.132Z,7.58
2018-12-25T05:28:39.707Z,7.63
2018-12-25T05:29:40.401Z,7.63
2018-12-25T05:30:41.046Z,7.60
2018-12-25T05:31:49.322Z,7.62
2018-12-25T05:32:49.974Z,7.58
2018-12-25T05:33:50.667Z,7.71
2018-12-25T05:34:51.315Z,7.59
2018-12-25T05:35:54.066Z,7.62
2018-12-25T05:36:54.719Z,7.66
2018-12-25T05:37:55.402Z,7.58
2018-12-25T05:38:56.054Z,7.62
2018-12-25T05:39:56.746Z,7.53
2018-12-25T05:40:57.395Z,7.69
2018-12-25T05:41:58.100Z,7.58
2018-12-25T05:42:58.772Z,7.50
2018-12-25T05:45:09.896Z,7.52
2018-12-25T05:46:11.643Z,7.49
2018-12-25T05:47:12.289Z,7.53
2018-12-25T05:48:12.979Z,7.45
2018-12-25T05:49:13.943Z,7.45
2018-12-25T05:50:16.679Z,7.50
2018-12-25T05:51:17.335Z,7.42
2018-12-25T05:52:20.078Z,7.45
2018-12-25T05:53:20.728Z,7.40
2018-12-25T05:54:22.450Z,7.41
2018-12-25T05:55:23.097Z,7.37
2018-12-25T05:56:24.816Z,7.42
2018-12-25T05:57:25.466Z,7.41
2018-12-25T05:58:40.806Z,7.40
2018-12-25T05:59:41.454Z,7.40
2018-12-25T06:00:43.170Z,7.44
2018-12-25T06:01:43.825Z,7.41
2018-12-25T06:02:52.324Z,7.45
2018-12-25T06:03:52.952Z,7.41
2018-12-25T06:04:53.651Z,7.42
2018-12-25T06:05:54.573Z,7.40
2018-12-25T06:06:56.387Z,7.47
2018-12-25T06:07:56.980Z,7.47
2018-12-25T06:08:58.695Z,7.42
2018-12-25T06:09:59.341Z,7.44
2018-12-25T06:11:00.041Z,7.50
2018-12-25T06:12:00.690Z,7.50
2018-12-25T06:13:08.349Z,7.49
2018-12-25T06:14:08.997Z,7.47
2018-12-25T06:15:09.690Z,7.56
2018-12-25T06:16:10.341Z,7.53
2018-12-25T06:17:11.033Z,7.52
2018-12-25T06:18:11.684Z,7.60
2018-12-25T06:19:12.384Z,7.56
2018-12-25T06:20:13.029Z,7.63
2018-12-25T06:21:13.904Z,7.67
2018-12-25T06:22:14.662Z,7.58
2018-12-25T06:23:15.315Z,7.58
2018-12-25T06:24:17.033Z,7.72
2018-12-25T06:25:17.688Z,7.55
2018-12-25T06:26:18.454Z,7.58
2018-12-25T06:27:19.020Z,7.74
2018-12-25T06:28:19.723Z,7.71
2018-12-25T06:29:20.366Z,7.74
2018-12-25T06:30:21.069Z,7.74
2018-12-25T06:31:21.728Z,7.71
2018-12-25T06:32:22.414Z,7.75
2018-12-25T06:33:23.065Z,7.78
2018-12-25T06:34:23.758Z,7.67
2018-12-25T06:35:24.443Z,7.89
2018-12-25T06:36:25.103Z,7.78
2018-12-25T06:37:25.751Z,7.81
2018-12-25T06:38:26.446Z,7.75
2018-12-25T06:39:27.211Z,7.77
2018-12-25T06:40:27.978Z,7.78
2018-12-25T06:41:28.545Z,7.84
2018-12-25T06:42:29.242Z,7.77
2018-12-25T06:43:29.889Z,7.81
2018-12-25T06:44:30.588Z,7.78
2018-12-25T06:45:31.244Z,7.71
2018-12-25T06:46:31.930Z,7.85
2018-12-25T06:47:32.578Z,7.81
2018-12-25T06:48:33.277Z,7.85
2018-12-25T06:49:33.923Z,7.79
2018-12-25T06:50:34.620Z,7.82
2018-12-25T06:51:35.267Z,7.74
2018-12-25T06:52:35.969Z,7.71
2018-12-25T06:53:36.621Z,7.62
2018-12-25T06:54:39.363Z,7.66
2018-12-25T06:55:37.963Z,7.74
2018-12-25T06:56:38.735Z,7.75
2018-12-25T06:57:39.314Z,7.69
2018-12-25T06:58:40.002Z,7.60
2018-12-25T06:59:40.652Z,7.58
2018-12-25T07:00:41.347Z,7.67
2018-12-25T07:01:41.996Z,7.63
2018-12-25T07:02:42.681Z,7.63
2018-12-25T07:03:43.462Z,7.71
2018-12-25T07:04:44.024Z,7.62
2018-12-25T07:05:44.676Z,7.60
2018-12-25T07:06:45.371Z,7.60
2018-12-25T07:07:46.033Z,7.72
2018-12-25T07:08:46.711Z,7.56
2018-12-25T07:09:47.371Z,7.67
2018-12-25T07:10:48.060Z,7.72
2018-12-25T07:11:48.709Z,7.71
2018-12-25T07:12:49.409Z,7.67
2018-12-25T07:13:50.055Z,7.66
2018-12-25T07:14:50.734Z,7.63
2018-12-25T07:15:51.385Z,7.58
2018-12-25T07:16:52.075Z,7.62
2018-12-25T07:17:52.778Z,7.56
2018-12-25T07:18:53.423Z,7.69
2018-12-25T07:19:54.075Z,7.63
2018-12-25T07:20:54.770Z,7.52
2018-12-25T07:21:55.421Z,7.59
2018-12-25T07:22:56.112Z,7.53
2018-12-25T07:23:56.763Z,7.49
2018-12-25T07:24:57.969Z,7.47
2018-12-25T07:25:58.619Z,7.53
2018-12-25T07:26:59.309Z,7.56
2018-12-25T07:27:59.960Z,7.53
2018-12-25T07:29:00.655Z,7.60
2018-12-25T07:30:01.311Z,7.56
2018-12-25T07:31:02.021Z,7.59
2018-12-25T07:32:02.647Z,7.56
2018-12-25T07:33:05.234Z,7.63
2018-12-25T07:34:05.940Z,7.69
2018-12-25T07:35:06.598Z,7.66
2018-12-25T07:36:07.250Z,7.63
2018-12-25T07:37:07.980Z,7.62
2018-12-25T07:38:08.412Z,7.62
2018-12-25T07:39:09.164Z,7.53
2018-12-25T07:40:09.804Z,7.66
2018-12-25T07:41:11.538Z,7.56
2018-12-25T07:42:12.188Z,7.63
2018-12-25T07:43:12.837Z,7.71
2018-12-25T07:44:20.260Z,7.60
2018-12-25T07:45:20.937Z,7.59
2018-12-25T07:46:22.583Z,7.67
2018-12-25T07:47:23.223Z,7.59
2018-12-25T07:48:23.965Z,7.60
2018-12-25T07:49:24.607Z,7.63
2018-12-25T07:50:25.317Z,7.59
2018-12-25T07:51:25.935Z,7.72
2018-12-25T07:52:26.894Z,7.63
2018-12-25T07:53:27.309Z,7.71
2018-12-25T07:54:28.020Z,7.67
2018-12-25T07:55:28.671Z,7.69
2018-12-25T07:56:29.356Z,7.74
2018-12-25T07:57:30.002Z,7.59
2018-12-25T07:58:30.702Z,7.60
2018-12-25T07:59:31.348Z,7.62
2018-12-25T08:00:32.051Z,7.71
2018-12-25T08:01:32.703Z,7.74
2018-12-25T08:02:33.392Z,7.81
2018-12-25T08:03:34.046Z,7.74
2018-12-25T08:04:34.739Z,7.72
2018-12-25T08:05:35.406Z,7.77
2018-12-25T08:06:36.073Z,7.79
2018-12-25T08:07:36.734Z,7.79
2018-12-25T08:08:37.422Z,7.79
2018-12-25T08:09:38.077Z,7.84
2018-12-25T08:10:38.771Z,7.75
2018-12-25T08:11:39.428Z,7.78
2018-12-25T08:12:40.068Z,7.78
2018-12-25T08:13:40.731Z,7.79
2018-12-25T08:14:41.389Z,7.84
2018-12-25T08:15:42.083Z,7.82
2018-12-25T08:16:42.938Z,7.97
2018-12-25T08:17:43.632Z,7.92
2018-12-25T08:18:44.280Z,7.85
2018-12-25T08:19:44.976Z,7.89
2018-12-25T08:20:45.625Z,7.92
2018-12-25T08:21:46.319Z,7.97
2018-12-25T08:22:46.964Z,7.99
2018-12-25T08:23:47.668Z,8.04
2018-12-25T08:24:48.320Z,8.07
2018-12-25T08:25:49.018Z,8.08
2018-12-25T08:26:49.660Z,8.07
2018-12-25T08:27:50.362Z,8.07
2018-12-25T08:28:51.014Z,8.07
2018-12-25T08:29:51.705Z,8.10
2018-12-25T08:30:52.353Z,8.21
2018-12-25T08:31:53.054Z,8.07
2018-12-25T08:32:53.995Z,8.15
2018-12-25T08:33:54.706Z,8.21
2018-12-25T08:34:55.354Z,8.15
2018-12-25T08:35:56.051Z,8.20
2018-12-25T08:36:56.693Z,8.17
2018-12-25T08:37:57.417Z,8.21
2018-12-25T08:38:58.036Z,8.18
2018-12-25T08:39:58.741Z,8.28
2018-12-25T08:40:59.400Z,8.21
2018-12-25T08:42:00.086Z,8.25
2018-12-25T08:43:00.736Z,8.28
2018-12-25T08:44:01.427Z,8.28
2018-12-25T08:45:02.091Z,8.29
2018-12-25T08:46:02.778Z,8.35
2018-12-25T08:47:03.442Z,8.33
2018-12-25T08:48:04.076Z,8.35
2018-12-25T08:49:04.717Z,8.32
2018-12-25T08:50:05.374Z,8.29
2018-12-25T08:51:06.023Z,8.29
2018-12-25T08:52:06.677Z,8.44
2018-12-25T08:53:07.314Z,8.40
2018-12-25T08:54:07.964Z,8.39
2018-12-25T08:55:08.610Z,8.37
2018-12-25T08:56:09.262Z,8.42
2018-12-25T08:57:10.421Z,8.37
2018-12-25T08:58:11.062Z,8.37
2018-12-25T08:59:11.713Z,8.35
2018-12-25T09:00:12.362Z,8.33
2018-12-25T09:01:13.019Z,8.33
2018-12-25T09:02:13.682Z,8.36
2018-12-25T09:03:14.315Z,8.44
2018-12-25T09:04:14.960Z,8.40
2018-12-25T09:05:15.618Z,8.44
2018-12-25T09:06:16.268Z,8.32
2018-12-25T09:07:17.171Z,8.39
2018-12-25T09:08:17.828Z,8.51
2018-12-25T09:09:18.466Z,8.37
2018-12-25T09:10:19.126Z,8.40
2018-12-25T09:11:19.834Z,8.45
2018-12-25T09:12:20.477Z,8.54
2018-12-25T09:13:21.198Z,8.55
2018-12-25T09:14:21.843Z,8.51
2018-12-25T09:15:22.522Z,8.54
2018-12-25T09:16:23.178Z,8.54
2018-12-25T09:17:23.859Z,8.53
2018-12-25T09:18:24.530Z,8.58
2018-12-25T09:19:25.166Z,8.57
2018-12-25T09:20:25.818Z,8.60
2018-12-25T09:21:26.473Z,8.63
2018-12-25T09:22:27.122Z,8.65
2018-12-25T09:23:27.767Z,8.72
2018-12-25T09:24:28.666Z,8.72
2018-12-25T09:25:29.317Z,8.81
2018-12-25T09:26:29.956Z,8.73
2018-12-25T09:27:30.619Z,8.78
2018-12-25T09:28:31.268Z,8.66
2018-12-25T09:29:31.940Z,8.76
2018-12-25T09:30:32.584Z,8.79
2018-12-25T09:31:33.231Z,8.76
2018-12-25T09:32:33.898Z,8.76
2018-12-25T09:33:34.549Z,8.75
2018-12-25T09:34:35.201Z,8.79
2018-12-25T09:35:35.879Z,8.75
2018-12-25T09:36:36.540Z,8.68
2018-12-25T09:37:37.213Z,8.57
2018-12-25T09:38:37.875Z,8.65
2018-12-25T09:39:38.557Z,8.63
2018-12-25T09:40:39.208Z,8.62
2018-12-25T09:41:39.856Z,8.57
2018-12-25T09:42:40.504Z,8.51
2018-12-25T09:43:41.250Z,8.65
2018-12-25T09:44:41.904Z,8.57
2018-12-25T09:45:42.543Z,8.62
2018-12-25T09:46:43.189Z,8.63
2018-12-25T09:47:43.940Z,8.55
2018-12-25T09:48:44.587Z,8.55
2018-12-25T09:49:45.286Z,8.50
2018-12-25T09:50:45.930Z,8.57
2018-12-25T09:51:54.383Z,8.55
2018-12-25T09:52:47.231Z,8.55
2018-12-25T09:53:47.878Z,8.53
2018-12-25T09:54:48.520Z,8.50
2018-12-25T09:55:49.180Z,8.66
2018-12-25T09:56:49.817Z,8.72
2018-12-25T09:57:50.473Z,8.72
2018-12-25T09:58:51.117Z,8.83
2018-12-25T09:59:51.764Z,8.76
2018-12-25T10:00:52.542Z,8.81
2018-12-25T10:01:53.186Z,8.76
2018-12-25T10:02:53.853Z,8.99
2018-12-25T10:03:54.497Z,9.15
2018-12-25T10:04:56.578Z,9.24
2018-12-25T10:05:56.870Z,9.31
2018-12-25T10:06:57.519Z,9.40
2018-12-25T10:07:58.230Z,9.45
2018-12-25T10:08:58.887Z,9.63
2018-12-25T10:09:59.525Z,9.45
2018-12-25T10:11:00.175Z,9.63
2018-12-25T10:12:00.832Z,9.66
2018-12-25T10:13:01.513Z,9.82
2018-12-25T10:14:02.172Z,9.81
2018-12-25T10:15:02.921Z,9.88
2018-12-25T10:16:03.574Z,9.96
2018-12-25T10:17:04.248Z,9.97
2018-12-25T10:18:04.892Z,9.91
2018-12-25T10:19:05.536Z,9.93
2018-12-25T10:20:06.203Z,10.04
2018-12-25T10:21:06.842Z,10.04
2018-12-25T10:22:07.489Z,10.10
2018-12-25T10:23:08.137Z,10.04
2018-12-25T10:24:08.794Z,10.01
2018-12-25T10:25:09.439Z,9.99
2018-12-25T10:26:10.100Z,10.03
2018-12-25T10:27:10.770Z,10.07
2018-12-25T10:28:11.435Z,10.24
2018-12-25T10:29:12.115Z,10.37
2018-12-25T10:30:12.765Z,10.43
2018-12-25T10:31:13.479Z,10.55
2018-12-25T10:32:14.105Z,10.53
2018-12-25T10:33:14.809Z,10.59
2018-12-25T10:34:15.455Z,10.60
2018-12-25T10:35:16.188Z,10.58
2018-12-25T10:36:16.836Z,10.56
2018-12-25T10:37:17.602Z,10.52
2018-12-25T10:38:18.247Z,10.63
2018-12-25T10:39:18.949Z,10.56
2018-12-25T10:40:19.601Z,10.70
2018-12-25T10:41:20.287Z,10.76
2018-12-25T10:42:20.936Z,10.81
2018-12-25T10:43:21.631Z,10.84
2018-12-25T10:44:22.283Z,10.80
2018-12-25T10:45:22.976Z,10.78
2018-12-25T10:46:23.628Z,10.80
2018-12-25T10:47:24.294Z,10.70
2018-12-25T10:48:25.061Z,10.74
2018-12-25T10:49:25.699Z,10.77
2018-12-25T10:50:26.355Z,10.73
2018-12-25T10:51:27.111Z,10.63
2018-12-25T10:52:27.765Z,10.70
2018-12-25T10:53:28.464Z,10.60
2018-12-25T10:54:29.108Z,10.70
2018-12-25T10:55:29.799Z,10.71
2018-12-25T10:56:30.450Z,10.71
2018-12-25T10:57:31.103Z,10.68
2018-12-25T10:58:31.868Z,10.73
2018-12-25T10:59:32.520Z,10.76
2018-12-25T11:00:33.171Z,10.77
2018-12-25T11:01:33.828Z,10.91
2018-12-25T11:02:34.491Z,10.98
2018-12-25T11:03:35.150Z,10.94
2018-12-25T11:04:35.799Z,10.96
2018-12-25T11:05:36.447Z,11.01
2018-12-25T11:06:37.096Z,10.92
2018-12-25T11:07:37.747Z,10.92
2018-12-25T11:08:38.394Z,10.96
2018-12-25T11:09:39.113Z,10.95
2018-12-25T11:10:39.763Z,10.95
2018-12-25T11:11:40.478Z,10.80
2018-12-25T11:12:41.108Z,10.80
2018-12-25T11:13:41.954Z,10.88
2018-12-25T11:14:42.615Z,10.84
2018-12-25T11:15:44.326Z,10.83
2018-12-25T11:16:44.976Z,10.74
2018-12-25T11:17:45.772Z,10.83
2018-12-25T11:18:49.147Z,10.66
2018-12-25T11:19:47.117Z,10.71
2018-12-25T11:20:47.773Z,10.83
2018-12-25T11:21:48.418Z,10.84
2018-12-25T11:22:49.073Z,10.81
2018-12-25T11:23:49.730Z,10.95
2018-12-25T11:24:50.385Z,10.98
2018-12-25T11:25:51.019Z,11.06
2018-12-25T11:26:51.622Z,11.13
2018-12-25T11:27:52.218Z,11.19
2018-12-25T11:28:53.087Z,11.27
2018-12-25T11:29:53.692Z,11.31
2018-12-25T11:30:54.290Z,11.38
2018-12-25T11:31:54.882Z,11.35
2018-12-25T11:32:55.471Z,11.54
2018-12-25T11:33:56.065Z,11.56
2018-12-25T11:34:56.679Z,11.86
2018-12-25T11:35:57.294Z,12.02
2018-12-25T11:36:57.896Z,11.94
2018-12-25T11:37:58.488Z,11.89
2018-12-25T11:38:59.085Z,11.77
2018-12-25T11:39:59.685Z,11.65
2018-12-25T11:41:00.299Z,11.80
2018-12-25T11:42:00.890Z,12.01
2018-12-25T11:43:01.487Z,12.02
2018-12-25T11:44:02.084Z,11.93
2018-12-25T11:45:02.682Z,11.83
2018-12-25T11:46:03.275Z,12.02
2018-12-25T11:47:04.075Z,11.99
2018-12-25T11:48:04.676Z,11.99
2018-12-25T11:49:05.282Z,11.94
2018-12-25T11:50:06.061Z,12.05
2018-12-25T11:51:06.654Z,12.01
2018-12-25T11:52:07.402Z,12.29
2018-12-25T11:53:07.998Z,12.51
2018-12-25T11:54:08.749Z,12.49
2018-12-25T11:55:09.639Z,12.51
2018-12-25T11:56:10.403Z,12.42
2018-12-25T11:57:10.994Z,12.34
2018-12-25T11:58:12.164Z,12.45
2018-12-25T11:59:12.193Z,12.49
2018-12-25T12:00:12.786Z,12.60
2018-12-25T12:01:13.375Z,12.60
2018-12-25T12:02:17.187Z,12.64
2018-12-25T12:03:15.771Z,12.64
2018-12-25T12:04:16.381Z,12.77
2018-12-25T12:05:16.972Z,12.92
2018-12-25T12:06:17.582Z,12.85
2018-12-25T12:07:18.175Z,12.99
2018-12-25T12:08:18.772Z,12.93
2018-12-25T12:09:19.378Z,12.87
2018-12-25T12:10:19.977Z,12.77
2018-12-25T12:11:20.590Z,12.77
2018-12-25T12:12:21.187Z,12.84
2018-12-25T12:13:21.781Z,12.99
2018-12-25T12:14:22.381Z,13.41
2018-12-25T12:15:22.973Z,14.10
2018-12-25T12:16:23.574Z,14.65
2018-12-25T12:17:24.292Z,15.17
2018-12-25T12:18:24.887Z,15.02
2018-12-25T12:19:25.485Z,14.93
2018-12-25T12:20:26.156Z,14.74
2018-12-25T12:21:26.754Z,14.57
2018-12-25T12:22:27.374Z,14.42
2018-12-25T12:23:27.952Z,14.37
2018-12-25T12:24:28.555Z,14.25
2018-12-25T12:25:29.149Z,14.12
2018-12-25T12:26:29.751Z,13.95
2018-12-25T12:27:30.348Z,13.94
2018-12-25T12:28:30.945Z,13.94
2018-12-25T12:29:31.544Z,14.01
2018-12-25T12:30:32.142Z,13.89
2018-12-25T12:31:32.736Z,13.83
2018-12-25T12:32:33.332Z,13.67
2018-12-25T12:33:33.931Z,13.56
2018-12-25T12:34:34.525Z,13.30
2018-12-25T12:35:35.124Z,13.24
2018-12-25T12:36:35.937Z,13.22
2018-12-25T12:37:36.538Z,13.14
2018-12-25T12:38:37.133Z,13.14
2018-12-25T12:39:37.734Z,13.21
2018-12-25T12:40:38.334Z,13.17
2018-12-25T12:41:38.963Z,13.09
2018-12-25T12:42:39.564Z,13.21
2018-12-25T12:43:40.164Z,13.17
2018-12-25T12:44:40.758Z,13.11
2018-12-25T12:45:41.352Z,13.04
2018-12-25T12:46:41.950Z,13.00
2018-12-25T12:47:42.548Z,12.84
2018-12-25T12:48:43.158Z,12.70
2018-12-25T12:49:43.753Z,12.62
2018-12-25T12:50:44.347Z,12.54
2018-12-25T12:51:44.966Z,12.49
2018-12-25T12:52:45.972Z,12.29
2018-12-25T12:53:46.131Z,12.27
2018-12-25T12:54:46.729Z,12.21
2018-12-25T12:55:47.324Z,12.16
2018-12-25T12:56:47.917Z,12.29
2018-12-25T12:57:48.517Z,12.30
2018-12-25T12:58:49.116Z,12.49
2018-12-25T12:59:49.713Z,12.63
2018-12-25T13:00:50.305Z,12.46
2018-12-25T13:01:50.906Z,12.42
2018-12-25T13:02:51.506Z,12.27
2018-12-25T13:03:52.123Z,12.27
2018-12-25T13:04:52.715Z,12.30
2018-12-25T13:05:53.313Z,12.29
2018-12-25T13:06:53.919Z,12.24
2018-12-25T13:07:54.513Z,12.26
2018-12-25T13:08:55.113Z,12.20
2018-12-25T13:09:55.718Z,12.04
2018-12-25T13:10:56.316Z,11.93
2018-12-25T13:11:56.923Z,11.86
2018-12-25T13:12:57.510Z,11.80
2018-12-25T13:13:58.101Z,11.86
2018-12-25T13:14:58.694Z,11.65
2018-12-25T13:15:59.291Z,11.59
2018-12-25T13:16:59.894Z,11.61
2018-12-25T13:18:00.487Z,11.61
2018-12-25T13:19:01.111Z,11.59
2018-12-25T13:20:01.714Z,11.59
2018-12-25T13:21:02.357Z,11.59
2018-12-25T13:22:02.956Z,11.56
2018-12-25T13:23:03.559Z,11.61
2018-12-25T13:24:04.451Z,11.68
2018-12-25T13:25:05.056Z,11.61
2018-12-25T13:26:05.648Z,11.61
2018-12-25T13:27:06.303Z,11.47